Adrian, Ohio
Current Conditions -  °F | °C
As of 6:53 AM on Tuesday 21 Oct 2014 (Local Time) from KFDY Reporting Station
Light Rain Light Rain  
Wind Chill: 44°   Ceiling: 3900
Heat Index: 48°   Visibility: 7mi
Dew Point: 45°   Wind: 9mph
Humidity: 89%   Direction: 310°NW
Pressure: 29.93"   Gusts: NA
Location:  41°N, 83.32°W
Report Text: KFDY 211053Z AUTO 31008KT 7SM -RA SCT009 SCT018 OVC039 09/07 A2993 RMK AO2 RAB28 SLP133 P0000 T00890072
Loading
Personal Weather Stations






























Interactive Weather Map
Tropical Storm Tracking
New forecast layout! Learn more

10-Day Weather Forecast

Advertisements
Track Severe Weather on mobile